Time;durP1;ratioP1;P1;durP2;ratioP2;P2;SDS_P1;SDS_P2;PMS_P1;PMS_P2;Temp;Humidity;BMP_temperature;BMP_pressure;BME280_temperature;BME280_humidity;BME280_pressure;Samples;Min_cycle;Max_cycle;Signal;HPM_P1;HPM_P2
2022/04/27 00:01:42;;;;;;;13.73;8.20;;;27.10;99.90;;;;;;5108316;28;20039;-63
2022/04/27 00:04:09;;;;;;;17.02;9.73;;;27.10;99.90;;;;;;5107746;28;20023;-63
2022/04/27 00:06:36;;;;;;;16.98;9.02;;;27.10;99.90;;;;;;5110797;27;20063;-63
2022/04/27 00:09:04;;;;;;;14.98;8.25;;;27.10;99.90;;;;;;5109022;28;20016;-63
2022/04/27 00:11:31;;;;;;;13.00;9.13;;;26.90;99.90;;;;;;5100404;28;20054;-62
2022/04/27 00:14:00;;;;;;;16.75;11.10;;;27.00;99.90;;;;;;5109168;28;20015;-62
2022/04/27 00:16:28;;;;;;;15.32;10.02;;;27.00;99.90;;;;;;5113894;28;20464;-62
2022/04/27 00:18:54;;;;;;;19.73;11.25;;;27.00;99.90;;;;;;5105492;27;20020;-63
2022/04/27 00:21:21;;;;;;;21.02;13.13;;;27.00;99.90;;;;;;5108089;28;20067;-63
2022/04/27 00:23:48;;;;;;;22.77;12.30;;;27.10;99.90;;;;;;5106791;28;20043;-63
2022/04/27 00:26:14;;;;;;;21.63;11.45;;;27.00;99.90;;;;;;5106628;28;20381;-63
2022/04/27 00:28:41;;;;;;;19.33;11.15;;;26.90;99.90;;;;;;5108592;27;20031;-62
2022/04/27 00:31:08;;;;;;;19.02;11.18;;;26.80;99.90;;;;;;5107340;28;20068;-63
2022/04/27 00:33:35;;;;;;;16.25;10.05;;;26.60;99.90;;;;;;5106395;27;20027;-62
2022/04/27 00:36:01;;;;;;;13.20;8.45;;;26.60;99.90;;;;;;5107303;28;20107;-62
2022/04/27 00:38:28;;;;;;;17.30;9.75;;;26.70;99.90;;;;;;5106423;28;20024;-63
2022/04/27 00:40:54;;;;;;;16.55;9.38;;;26.90;99.90;;;;;;5105758;28;20095;-63
2022/04/27 00:43:39;;;;;;;14.63;9.18;;;26.80;99.90;;;;;;5105564;28;20047;-62
2022/04/27 00:46:06;;;;;;;15.95;10.45;;;26.70;99.90;;;;;;5106065;27;20097;-61
2022/04/27 00:48:35;;;;;;;14.65;10.18;;;26.60;99.90;;;;;;5106870;28;20026;-63
2022/04/27 00:51:03;;;;;;;15.82;9.13;;;26.50;99.90;;;;;;5107759;28;20024;-62
2022/04/27 00:53:30;;;;;;;13.80;9.25;;;26.60;99.90;;;;;;5104738;28;20016;-63
2022/04/27 00:55:59;;;;;;;11.75;8.73;;;26.60;99.90;;;;;;5112204;28;20032;-62
2022/04/27 00:58:27;;;;;;;14.57;8.63;;;26.60;99.90;;;;;;5117191;28;20035;-63
2022/04/27 01:00:55;;;;;;;14.13;8.35;;;26.60;99.90;;;;;;5113024;28;20039;-63
2022/04/27 01:03:22;;;;;;;13.00;8.02;;;26.40;99.90;;;;;;5107103;28;20024;-63
2022/04/27 01:05:50;;;;;;;14.60;7.72;;;26.50;99.90;;;;;;5105445;28;20028;-62
2022/04/27 01:08:18;;;;;;;12.45;7.60;;;26.50;99.90;;;;;;5106403;28;20417;-62
2022/04/27 01:10:46;;;;;;;11.23;7.07;;;26.60;99.90;;;;;;5113758;28;20081;-62
2022/04/27 01:13:13;;;;;;;15.20;8.15;;;26.70;99.90;;;;;;5113473;28;20027;-62
2022/04/27 01:15:41;;;;;;;11.48;7.05;;;26.70;99.90;;;;;;5107008;28;20028;-62
2022/04/27 01:18:09;;;;;;;15.20;6.65;;;26.60;99.90;;;;;;5106193;28;20488;-62
2022/04/27 01:20:38;;;;;;;17.42;8.02;;;26.40;99.90;;;;;;5106521;28;20032;-64
2022/04/27 01:23:06;;;;;;;13.10;7.53;;;26.20;99.90;;;;;;5106684;28;20024;-63
2022/04/27 01:25:49;;;;;;;14.70;8.25;;;26.00;99.90;;;;;;5103663;28;20043;-62
2022/04/27 01:28:19;;;;;;;12.77;7.20;;;26.10;99.90;;;;;;5107638;28;20036;-63
2022/04/27 01:30:46;;;;;;;13.93;7.63;;;26.20;99.90;;;;;;5108005;28;20024;-63
2022/04/27 01:33:13;;;;;;;12.75;6.82;;;26.20;99.90;;;;;;5113427;28;20467;-63
2022/04/27 01:35:40;;;;;;;10.82;7.13;;;26.20;99.90;;;;;;5104917;28;20034;-62
2022/04/27 01:38:07;;;;;;;13.60;7.00;;;26.20;99.90;;;;;;5105928;28;20079;-62
2022/04/27 01:40:35;;;;;;;11.77;7.57;;;26.20;99.90;;;;;;5104508;28;20020;-63
2022/04/27 01:43:02;;;;;;;16.02;8.10;;;26.20;99.90;;;;;;5105726;28;20062;-62
2022/04/27 01:45:29;;;;;;;12.55;8.65;;;26.40;99.90;;;;;;5104575;28;20031;-64
2022/04/27 01:47:57;;;;;;;13.52;7.40;;;26.40;99.90;;;;;;5104959;28;20478;-62
2022/04/27 01:50:24;;;;;;;12.57;7.90;;;26.30;99.90;;;;;;5106015;28;20125;-63
2022/04/27 01:55:29;;;;;;;18.30;8.10;;;26.40;99.90;;;;;;5105918;28;20429;-64
2022/04/27 01:57:56;;;;;;;12.45;7.30;;;26.40;99.90;;;;;;5104532;28;20388;-63
2022/04/27 02:00:23;;;;;;;12.57;7.35;;;26.30;99.90;;;;;;5114222;28;20024;-63
2022/04/27 02:02:49;;;;;;;14.05;7.80;;;26.30;99.90;;;;;;5095295;28;20081;-63
2022/04/27 02:05:16;;;;;;;11.55;7.28;;;26.30;99.90;;;;;;5111823;28;20032;-62
2022/04/27 02:07:43;;;;;;;11.20;6.53;;;26.40;99.90;;;;;;5115689;28;20028;-63
2022/04/27 02:10:10;;;;;;;11.35;5.78;;;26.50;99.90;;;;;;5110249;28;20028;-63
2022/04/27 02:12:36;;;;;;;9.77;5.95;;;26.50;99.90;;;;;;5102054;28;20409;-63
2022/04/27 02:15:04;;;;;;;12.35;7.65;;;26.50;99.90;;;;;;5114966;28;20043;-63
2022/04/27 02:17:30;;;;;;;14.90;10.20;;;26.30;99.90;;;;;;5115449;28;20112;-61
2022/04/27 02:19:57;;;;;;;18.05;13.07;;;26.20;99.90;;;;;;5108251;28;20032;-63
2022/04/27 02:22:24;;;;;;;20.90;14.52;;;26.10;99.90;;;;;;5107737;28;20080;-61
2022/04/27 02:24:51;;;;;;;19.67;13.88;;;26.20;99.90;;;;;;5115687;28;20035;-61
2022/04/27 02:27:20;;;;;;;16.75;11.48;;;26.20;99.90;;;;;;5112185;28;20024;-63
2022/04/27 02:29:46;;;;;;;20.08;13.55;;;26.10;99.90;;;;;;5108870;28;20024;-62
2022/04/27 02:32:15;;;;;;;19.85;15.93;;;26.20;99.90;;;;;;5103150;28;20028;-62
2022/04/27 02:34:42;;;;;;;25.80;19.63;;;26.20;99.90;;;;;;5106323;28;20031;-62
2022/04/27 02:37:09;;;;;;;17.92;14.40;;;26.20;99.90;;;;;;5108517;28;20361;-63
2022/04/27 02:39:36;;;;;;;13.07;8.65;;;26.20;99.90;;;;;;5103383;28;20028;-63
2022/04/27 02:42:03;;;;;;;11.85;7.57;;;26.10;99.90;;;;;;5107250;28;20031;-63
2022/04/27 02:44:30;;;;;;;12.70;7.72;;;26.10;99.90;;;;;;5103134;27;20035;-61
2022/04/27 02:46:57;;;;;;;8.68;6.47;;;26.20;99.90;;;;;;5101414;28;20499;-62
2022/04/27 02:52:02;;;;;;;10.70;6.32;;;26.20;99.90;;;;;;5109805;28;20016;-63
2022/04/27 02:54:28;;;;;;;8.23;6.03;;;26.20;99.90;;;;;;5101262;28;20111;-63
2022/04/27 02:56:55;;;;;;;9.82;6.93;;;26.10;99.90;;;;;;5103558;28;20040;-63
2022/04/27 02:59:22;;;;;;;11.05;9.13;;;26.20;99.90;;;;;;5102159;28;20028;-64
2022/04/27 03:01:49;;;;;;;12.98;11.52;;;26.30;99.90;;;;;;5104613;28;20081;-63
2022/04/27 03:04:16;;;;;;;16.80;12.40;;;26.20;99.90;;;;;;5097936;28;20028;-63
2022/04/27 03:06:42;;;;;;;14.15;10.52;;;26.30;99.90;;;;;;5105582;28;20122;-62
2022/04/27 03:09:09;;;;;;;12.27;9.80;;;26.40;99.90;;;;;;5101723;28;20055;-63
2022/04/27 03:11:36;;;;;;;9.88;7.10;;;26.50;99.90;;;;;;5103451;28;20434;-63
2022/04/27 03:14:02;;;;;;;11.18;6.70;;;26.60;99.90;;;;;;5107582;28;20098;-64
2022/04/27 03:16:29;;;;;;;12.18;7.93;;;26.60;99.90;;;;;;5094774;28;20510;-63
2022/04/27 03:18:56;;;;;;;10.25;7.65;;;26.70;99.90;;;;;;5101257;28;20032;-62
2022/04/27 03:21:22;;;;;;;13.60;9.18;;;26.70;99.90;;;;;;5110469;28;21254;-62
2022/04/27 03:23:49;;;;;;;11.85;10.00;;;26.80;99.90;;;;;;5106093;28;20032;-61
2022/04/27 03:26:16;;;;;;;10.23;8.45;;;26.90;99.90;;;;;;5093112;28;20062;-62
2022/04/27 03:28:42;;;;;;;10.40;8.48;;;26.90;99.90;;;;;;5094481;28;20470;-61
2022/04/27 03:31:09;;;;;;;10.48;7.30;;;26.90;99.90;;;;;;5102071;28;20105;-62
2022/04/27 03:33:36;;;;;;;8.48;5.85;;;26.90;99.90;;;;;;5112052;28;20039;-62
2022/04/27 03:36:03;;;;;;;7.40;4.65;;;26.90;99.90;;;;;;5105665;28;20030;-62
2022/04/27 03:38:30;;;;;;;6.68;4.28;;;26.90;99.90;;;;;;5105163;28;20023;-62
2022/04/27 03:40:56;;;;;;;7.53;4.82;;;27.00;99.90;;;;;;5111414;28;20035;-62
2022/04/27 03:43:23;;;;;;;6.00;4.00;;;27.10;99.90;;;;;;5102262;28;20044;-62
2022/04/27 03:45:50;;;;;;;7.18;3.80;;;27.10;99.90;;;;;;5109181;28;20050;-62
2022/04/27 03:48:16;;;;;;;6.22;3.55;;;27.10;99.90;;;;;;5111575;28;20077;-63
2022/04/27 03:50:43;;;;;;;9.38;4.10;;;27.10;99.90;;;;;;5107074;28;20107;-63
2022/04/27 03:53:10;;;;;;;7.82;4.88;;;27.20;99.90;;;;;;5109300;28;20500;-62
2022/04/27 03:55:37;;;;;;;7.97;4.00;;;27.20;99.90;;;;;;5107529;28;20036;-61
2022/04/27 03:58:05;;;;;;;5.30;2.95;;;27.30;99.90;;;;;;5106467;28;20035;-62
2022/04/27 04:00:32;;;;;;;6.97;3.38;;;27.30;99.90;;;;;;5111038;28;20129;-62
2022/04/27 04:03:03;;;;;;;8.73;3.60;;;27.30;99.90;;;;;;5105193;28;20023;-62
2022/04/27 04:05:30;;;;;;;4.95;3.10;;;27.40;99.90;;;;;;5107204;28;20027;-62
2022/04/27 04:07:58;;;;;;;5.15;3.40;;;27.50;99.90;;;;;;5111247;28;20056;-63
2022/04/27 04:10:24;;;;;;;4.45;2.92;;;27.50;99.90;;;;;;5101786;28;20032;-63
2022/04/27 04:12:51;;;;;;;3.17;2.58;;;27.40;99.90;;;;;;5112884;28;20024;-63
2022/04/27 04:15:18;;;;;;;4.43;2.65;;;27.40;99.90;;;;;;5113831;28;20063;-62
2022/04/27 04:17:47;;;;;;;6.50;3.05;;;27.40;99.90;;;;;;5100944;28;20545;-62
2022/04/27 04:20:19;;;;;;;4.43;2.83;;;27.50;99.90;;;;;;5101763;28;20043;-63
2022/04/27 04:22:47;;;;;;;6.88;3.08;;;27.50;99.90;;;;;;5111237;28;20383;-63
2022/04/27 04:30:32;;;;;;;5.43;3.40;;;27.70;99.90;;;;;;5098274;28;20023;-62
2022/04/27 04:32:58;;;;;;;6.88;3.97;;;27.80;99.90;;;;;;5105973;28;20106;-63
2022/04/27 04:35:25;;;;;;;6.10;4.25;;;27.80;99.90;;;;;;5112954;28;20032;-63
2022/04/27 04:37:52;;;;;;;4.95;3.92;;;27.90;99.90;;;;;;5115512;28;20440;-63
2022/04/27 04:40:19;;;;;;;3.20;2.53;;;27.90;99.90;;;;;;5112549;27;20035;-62
2022/04/27 04:42:46;;;;;;;5.15;2.90;;;27.90;99.90;;;;;;5113681;28;20500;-64
2022/04/27 04:45:13;;;;;;;4.43;3.13;;;28.00;99.90;;;;;;5108289;28;20249;-65
2022/04/27 04:47:42;;;;;;;5.40;3.10;;;28.00;99.90;;;;;;5107703;28;20028;-63
2022/04/27 04:50:10;;;;;;;8.30;4.15;;;28.10;99.90;;;;;;5111089;28;20023;-63
2022/04/27 04:52:37;;;;;;;6.47;3.90;;;28.10;99.90;;;;;;5107464;28;20036;-63
2022/04/27 04:55:04;;;;;;;6.88;3.53;;;28.10;99.90;;;;;;5104852;28;20069;-65
2022/04/27 04:57:31;;;;;;;5.05;3.38;;;28.20;99.90;;;;;;5108862;28;20024;-65
2022/04/27 04:59:58;;;;;;;4.68;3.45;;;28.20;99.90;;;;;;5097251;28;20032;-65
2022/04/27 05:02:25;;;;;;;5.60;3.47;;;28.20;99.90;;;;;;5116598;28;20503;-64
2022/04/27 05:04:51;;;;;;;11.63;3.92;;;28.30;99.90;;;;;;5115755;28;20032;-63
2022/04/27 05:07:19;;;;;;;5.18;3.58;;;28.30;99.90;;;;;;5108438;28;20035;-63
2022/04/27 05:09:46;;;;;;;4.13;3.05;;;28.30;99.90;;;;;;5103464;28;20308;-63
2022/04/27 05:12:13;;;;;;;7.63;3.60;;;28.40;99.90;;;;;;5106850;28;20390;-63
2022/04/27 05:14:40;;;;;;;8.85;4.53;;;28.40;99.90;;;;;;5107303;28;20077;-62
2022/04/27 05:17:06;;;;;;;9.07;4.50;;;28.50;99.90;;;;;;5103634;28;20476;-63
2022/04/27 05:19:33;;;;;;;6.55;4.28;;;28.60;99.90;;;;;;5106202;28;20046;-62
2022/04/27 05:22:00;;;;;;;7.07;4.53;;;28.60;99.90;;;;;;5105748;28;20020;-63
2022/04/27 05:24:26;;;;;;;9.85;5.18;;;28.60;99.90;;;;;;5104228;28;20056;-64
2022/04/27 05:26:53;;;;;;;9.02;3.75;;;28.70;99.90;;;;;;5105507;28;20465;-62
2022/04/27 05:31:58;;;;;;;8.43;3.95;;;28.70;99.90;;;;;;5108899;28;20544;-65
2022/04/27 05:34:29;;;;;;;7.15;4.32;;;28.80;99.90;;;;;;5104431;28;20141;-63
2022/04/27 05:36:57;;;;;;;8.53;3.83;;;28.80;99.90;;;;;;5105939;28;20024;-63
2022/04/27 05:39:24;;;;;;;12.88;4.15;;;28.90;99.90;;;;;;5112861;28;20260;-62
2022/04/27 05:41:52;;;;;;;6.57;4.07;;;29.00;99.90;;;;;;5110654;28;20549;-62
2022/04/27 05:44:25;;;;;;;12.88;5.07;;;29.00;99.90;;;;;;5103206;28;20315;-64
2022/04/27 05:46:53;;;;;;;10.60;4.85;;;29.10;99.90;;;;;;5106335;28;20028;-66
2022/04/27 05:49:20;;;;;;;10.20;5.05;;;29.10;99.90;;;;;;5102461;28;20052;-64
2022/04/27 05:51:48;;;;;;;8.15;5.28;;;29.10;99.90;;;;;;5110219;28;20028;-64
2022/04/27 05:54:15;;;;;;;8.65;4.32;;;29.10;99.90;;;;;;5104189;28;20016;-65
2022/04/27 05:56:42;;;;;;;6.03;4.15;;;29.20;99.90;;;;;;5107108;28;20110;-64
2022/04/27 05:59:10;;;;;;;5.60;4.40;;;29.10;99.90;;;;;;5109361;28;20059;-62
2022/04/27 06:01:37;;;;;;;8.02;4.57;;;29.20;99.90;;;;;;5102918;28;20076;-61
2022/04/27 06:04:04;;;;;;;10.48;4.95;;;29.10;99.90;;;;;;5104354;28;20024;-63
2022/04/27 06:06:31;;;;;;;8.60;5.10;;;29.10;99.90;;;;;;5104085;28;20038;-62
2022/04/27 06:08:58;;;;;;;7.93;5.00;;;29.30;99.90;;;;;;5098465;28;20050;-62
2022/04/27 06:11:25;;;;;;;10.30;5.28;;;29.30;99.90;;;;;;5108406;28;20217;-63
2022/04/27 06:13:52;;;;;;;8.00;5.10;;;29.30;99.90;;;;;;5099071;28;20100;-62
2022/04/27 06:16:19;;;;;;;10.57;5.38;;;29.30;99.90;;;;;;5109674;28;20024;-62
2022/04/27 06:18:45;;;;;;;8.68;5.25;;;29.30;99.90;;;;;;5105767;28;20020;-62
2022/04/27 06:21:13;;;;;;;12.55;5.93;;;29.30;99.90;;;;;;5106260;28;20059;-64
2022/04/27 06:23:40;;;;;;;13.73;5.97;;;29.40;99.90;;;;;;5104754;28;20033;-64
2022/04/27 06:26:07;;;;;;;7.95;5.25;;;29.40;99.90;;;;;;5109309;28;20027;-68
2022/04/27 06:28:34;;;;;;;7.32;4.97;;;29.50;99.90;;;;;;5105862;28;20036;-62
2022/04/27 06:31:01;;;;;;;12.20;5.72;;;29.50;99.90;;;;;;5105235;28;20544;-62
2022/04/27 06:33:28;;;;;;;12.20;8.07;;;29.50;99.90;;;;;;5104020;28;20105;-63
2022/04/27 06:35:54;;;;;;;14.57;7.95;;;29.60;99.90;;;;;;5104598;28;20020;-63
2022/04/27 06:38:21;;;;;;;9.35;5.68;;;29.60;99.90;;;;;;5103275;28;20087;-62
2022/04/27 06:40:48;;;;;;;8.15;5.30;;;29.60;99.90;;;;;;5105509;28;20039;-60
2022/04/27 06:43:15;;;;;;;10.48;5.85;;;29.60;99.90;;;;;;5103076;28;20056;-63
2022/04/27 06:45:41;;;;;;;14.13;9.82;;;29.60;99.90;;;;;;5102901;28;20496;-61
2022/04/27 06:48:08;;;;;;;12.38;6.43;;;29.60;99.90;;;;;;5104891;28;20423;-61
2022/04/27 06:50:35;;;;;;;8.57;5.40;;;29.60;99.90;;;;;;5104262;28;20477;-63
2022/04/27 06:53:01;;;;;;;11.90;5.07;;;29.70;99.90;;;;;;5104369;28;20139;-61
2022/04/27 06:55:28;;;;;;;13.35;9.45;;;29.70;99.90;;;;;;5104879;28;20028;-62
2022/04/27 06:57:55;;;;;;;10.73;7.05;;;29.70;99.90;;;;;;5106747;28;20106;-63
2022/04/27 07:00:22;;;;;;;10.88;6.70;;;29.70;99.90;;;;;;5107217;28;20039;-63
2022/04/27 07:02:49;;;;;;;24.98;15.27;;;29.70;99.90;;;;;;5114328;28;20388;-63
2022/04/27 07:05:20;;;;;;;11.65;7.55;;;29.80;99.90;;;;;;5113167;28;20095;-63
2022/04/27 07:07:47;;;;;;;14.60;9.83;;;29.80;99.90;;;;;;5114135;28;20035;-63
2022/04/27 07:10:16;;;;;;;23.63;12.60;;;29.80;99.90;;;;;;5114513;28;20030;-63
2022/04/27 07:12:43;;;;;;;16.63;10.32;;;29.80;99.90;;;;;;5114527;28;20035;-63
2022/04/27 07:15:10;;;;;;;35.15;22.55;;;29.80;99.90;;;;;;5114369;28;20466;-62
2022/04/27 07:17:37;;;;;;;15.43;9.40;;;29.80;99.90;;;;;;5112372;28;20027;-64
2022/04/27 07:20:04;;;;;;;12.07;8.73;;;29.80;99.90;;;;;;5114141;28;20595;-63
2022/04/27 07:22:31;;;;;;;34.22;15.60;;;29.70;99.90;;;;;;5112454;28;20108;-63
2022/04/27 07:24:57;;;;;;;19.38;10.90;;;29.80;99.90;;;;;;5126157;27;20035;-62
2022/04/27 07:27:25;;;;;;;64.47;29.10;;;29.80;99.90;;;;;;5134928;27;20110;-63
2022/04/27 07:29:51;;;;;;;68.82;32.72;;;29.80;99.90;;;;;;5121352;27;20047;-64
2022/04/27 07:32:18;;;;;;;39.47;19.80;;;29.80;99.90;;;;;;5113708;28;20111;-63
2022/04/27 07:34:44;;;;;;;36.70;17.17;;;29.90;99.90;;;;;;5103117;28;20077;-64
2022/04/27 07:37:12;;;;;;;16.17;9.55;;;29.90;99.90;;;;;;5093885;28;20034;-63
2022/04/27 07:39:39;;;;;;;12.13;7.35;;;29.90;99.90;;;;;;5097098;28;20027;-63
2022/04/27 07:42:06;;;;;;;14.23;8.82;;;29.90;99.90;;;;;;5111707;28;20058;-62
2022/04/27 07:44:32;;;;;;;13.45;8.45;;;29.90;99.90;;;;;;5104849;28;20107;-63
2022/04/27 07:46:59;;;;;;;12.60;8.93;;;29.90;99.90;;;;;;5094147;28;20032;-63
2022/04/27 07:49:26;;;;;;;19.50;11.50;;;29.90;99.90;;;;;;5099582;28;20035;-63
2022/04/27 07:51:53;;;;;;;29.15;17.27;;;30.00;99.90;;;;;;5114657;28;20411;-63
2022/04/27 07:54:20;;;;;;;25.77;16.80;;;29.90;99.90;;;;;;5114747;28;20019;-62
2022/04/27 07:56:46;;;;;;;23.35;13.82;;;30.00;99.90;;;;;;5114275;28;20153;-63
2022/04/27 07:59:13;;;;;;;38.15;20.85;;;30.00;99.90;;;;;;5113484;28;20032;-61
2022/04/27 08:01:40;;;;;;;26.92;15.68;;;30.00;99.90;;;;;;5102319;28;20055;-62
2022/04/27 08:04:06;;;;;;;26.15;14.82;;;30.00;99.90;;;;;;5103520;28;20120;-61
2022/04/27 08:06:33;;;;;;;21.38;13.48;;;30.10;99.90;;;;;;5104946;28;20028;-62
2022/04/27 08:09:00;;;;;;;24.67;15.68;;;30.00;99.90;;;;;;5105492;28;20028;-64
2022/04/27 08:11:27;;;;;;;28.48;18.02;;;30.00;99.90;;;;;;5103036;28;20051;-62
2022/04/27 08:13:53;;;;;;;28.88;16.35;;;30.00;99.90;;;;;;5107401;28;20383;-61
2022/04/27 08:16:20;;;;;;;24.17;15.30;;;30.10;99.90;;;;;;5106293;28;20103;-62
2022/04/27 08:18:46;;;;;;;18.42;13.80;;;30.10;99.90;;;;;;5107621;28;20601;-61
2022/04/27 08:21:14;;;;;;;20.38;13.80;;;30.10;99.90;;;;;;5106641;28;20027;-63
2022/04/27 08:23:43;;;;;;;22.65;12.75;;;30.20;99.90;;;;;;5105916;28;20042;-63
2022/04/27 08:26:11;;;;;;;19.98;12.77;;;30.20;99.90;;;;;;5108604;28;20054;-64
2022/04/27 08:28:39;;;;;;;19.83;12.88;;;30.20;99.90;;;;;;5110200;28;20028;-64
2022/04/27 08:31:07;;;;;;;16.98;13.05;;;30.20;99.90;;;;;;5106715;28;20023;-64
2022/04/27 08:33:34;;;;;;;16.75;11.90;;;30.20;99.90;;;;;;5115427;28;20059;-62
2022/04/27 08:36:03;;;;;;;17.10;11.93;;;30.20;99.90;;;;;;5109122;28;20115;-64
2022/04/27 08:38:30;;;;;;;17.60;12.30;;;30.30;99.90;;;;;;5109158;28;20098;-62
2022/04/27 08:40:57;;;;;;;16.52;13.00;;;30.30;99.90;;;;;;5103054;28;20767;-61
2022/04/27 08:43:24;;;;;;;16.10;12.57;;;30.30;99.90;;;;;;5104515;28;20063;-62
2022/04/27 08:45:52;;;;;;;17.55;14.07;;;30.30;99.90;;;;;;5109941;28;20050;-63
2022/04/27 08:48:21;;;;;;;13.15;10.38;;;30.30;99.90;;;;;;5107085;28;20024;-62
2022/04/27 08:50:48;;;;;;;11.73;8.23;;;30.30;99.90;;;;;;5092202;28;20020;-62
2022/04/27 08:53:15;;;;;;;12.00;8.77;;;30.30;99.90;;;;;;5106158;28;20031;-62
2022/04/27 08:55:43;;;;;;;10.75;8.45;;;30.30;99.90;;;;;;5114132;28;20031;-63
2022/04/27 08:58:10;;;;;;;12.38;8.18;;;30.30;99.90;;;;;;5116200;28;20039;-63
2022/04/27 09:00:38;;;;;;;10.98;7.70;;;30.30;99.90;;;;;;5116471;28;20020;-62
2022/04/27 09:03:28;;;;;;;15.23;7.15;;;30.30;99.90;;;;;;5116636;28;20020;-63
2022/04/27 09:05:59;;;;;;;12.20;6.80;;;30.30;99.90;;;;;;5115735;28;20031;-62
2022/04/27 09:08:43;;;;;;;14.47;9.10;;;30.30;99.90;;;;;;5110784;28;20034;-61
2022/04/27 09:11:20;;;;;;;17.08;11.27;;;30.30;99.90;;;;;;5105001;28;20351;-63
2022/04/27 09:13:48;;;;;;;18.77;11.68;;;30.30;99.90;;;;;;5111186;28;20020;-63
2022/04/27 09:16:16;;;;;;;14.18;9.90;;;30.30;99.90;;;;;;5104414;28;20028;-62
2022/04/27 09:21:26;;;;;;;13.98;9.35;;;30.30;99.90;;;;;;5107329;28;20372;-62
2022/04/27 09:24:03;;;;;;;12.90;8.73;;;30.30;99.90;;;;;;5104317;28;20099;-62
2022/04/27 09:26:31;;;;;;;12.25;8.63;;;30.30;99.90;;;;;;5116323;28;20406;-62
2022/04/27 09:28:59;;;;;;;19.75;8.93;;;30.30;99.90;;;;;;5116315;28;20099;-64
2022/04/27 09:31:27;;;;;;;16.65;9.63;;;30.30;99.90;;;;;;5116232;28;20016;-62
2022/04/27 09:34:02;;;;;;;13.75;9.40;;;30.30;99.90;;;;;;5116241;28;20019;-64
2022/04/27 09:36:29;;;;;;;26.10;12.35;;;30.30;99.90;;;;;;5116269;28;20051;-63
2022/04/27 09:38:57;;;;;;;18.40;10.55;;;30.30;99.90;;;;;;5116055;28;20028;-64
2022/04/27 09:41:42;;;;;;;19.73;12.13;;;30.30;99.90;;;;;;5116021;28;20031;-62
2022/04/27 09:44:27;;;;;;;12.63;8.80;;;30.30;99.90;;;;;;5112866;28;20500;-62
2022/04/27 09:46:54;;;;;;;8.85;7.20;;;30.30;99.90;;;;;;5115895;28;20027;-62
2022/04/27 09:49:20;;;;;;;12.57;7.97;;;30.30;99.90;;;;;;5104097;28;20574;-61
2022/04/27 09:51:48;;;;;;;12.00;8.55;;;30.30;99.90;;;;;;5095527;28;20031;-63
2022/04/27 09:54:20;;;;;;;13.80;8.27;;;30.20;99.90;;;;;;5105848;28;20103;-62
2022/04/27 09:56:51;;;;;;;16.42;10.40;;;30.20;99.90;;;;;;5105536;28;20034;-64
2022/04/27 09:59:22;;;;;;;15.38;10.13;;;30.20;99.90;;;;;;5099740;28;20484;-60
2022/04/27 10:01:50;;;;;;;16.85;10.23;;;30.10;99.90;;;;;;5103604;28;20034;-63
2022/04/27 10:04:21;;;;;;;12.77;9.30;;;30.10;99.90;;;;;;5106469;28;20491;-61
2022/04/27 10:06:49;;;;;;;19.50;10.67;;;30.10;99.90;;;;;;5103611;28;20031;-63
2022/04/27 10:09:16;;;;;;;16.25;10.43;;;30.10;99.90;;;;;;5106106;28;20258;-63
2022/04/27 10:11:44;;;;;;;19.90;11.45;;;30.00;99.90;;;;;;5108480;28;20044;-63
2022/04/27 10:14:11;;;;;;;22.15;12.18;;;30.00;99.90;;;;;;5108245;28;20094;-59
2022/04/27 10:16:39;;;;;;;27.30;13.15;;;29.50;99.90;;;;;;5109057;28;20028;-64
2022/04/27 10:19:10;;;;;;;25.08;14.20;;;29.20;99.90;;;;;;5105429;22;20048;-62
2022/04/27 10:21:43;;;;;;;23.58;12.82;;;29.00;99.90;;;;;;5094526;28;20543;-64
2022/04/27 10:24:13;;;;;;;27.08;14.00;;;28.70;99.90;;;;;;5093840;28;20063;-64
2022/04/27 10:26:40;;;;;;;27.90;11.80;;;28.50;99.90;;;;;;5095132;28;20056;-65
2022/04/27 10:29:10;;;;;;;18.55;10.00;;;28.40;99.90;;;;;;5084294;28;20032;-62
2022/04/27 10:31:43;;;;;;;26.02;10.25;;;28.10;99.90;;;;;;5075038;28;20063;-62
2022/04/27 10:34:19;;;;;;;19.33;10.20;;;28.00;99.90;;;;;;5074870;28;20116;-63
2022/04/27 10:36:47;;;;;;;19.65;10.85;;;27.90;99.90;;;;;;5078662;28;20107;-62
2022/04/27 10:39:15;;;;;;;20.70;10.90;;;27.70;99.90;;;;;;5074661;28;20482;-61
2022/04/27 10:41:43;;;;;;;22.90;12.15;;;27.60;99.90;;;;;;5074458;28;20025;-62
2022/04/27 10:44:09;;;;;;;29.58;14.55;;;27.60;99.90;;;;;;5093046;28;20027;-62
2022/04/27 10:46:43;;;;;;;26.83;14.82;;;27.70;99.90;;;;;;5090769;28;20032;-63
2022/04/27 10:49:25;;;;;;;27.90;12.43;;;27.70;99.90;;;;;;5088342;28;20354;-62
2022/04/27 10:52:05;;;;;;;14.48;10.10;;;27.60;99.90;;;;;;5093617;28;20100;-62
2022/04/27 10:54:34;;;;;;;16.75;7.68;;;27.40;99.90;;;;;;5080678;28;20032;-64
2022/04/27 10:57:15;;;;;;;17.88;10.35;;;27.30;99.90;;;;;;5074168;28;20173;-61
2022/04/27 10:59:47;;;;;;;17.48;9.70;;;27.10;99.90;;;;;;5090854;28;20027;-61
2022/04/27 11:02:35;;;;;;;12.18;7.72;;;27.10;99.90;;;;;;5093461;28;20102;-61
2022/04/27 11:05:05;;;;;;;13.10;8.43;;;27.00;99.90;;;;;;5074240;28;20043;-61
2022/04/27 11:07:59;;;;;;;11.07;8.50;;;27.10;99.90;;;;;;5091770;28;20134;-62
2022/04/27 11:10:27;;;;;;;15.50;8.73;;;27.10;99.90;;;;;;5090170;28;20035;-61
2022/04/27 11:12:57;;;;;;;63.00;44.88;;;27.10;99.90;;;;;;5093962;28;20389;-62
2022/04/27 11:15:27;;;;;;;92.95;62.63;;;27.10;99.90;;;;;;5107162;28;20037;-62
2022/04/27 11:18:04;;;;;;;64.88;43.63;;;27.20;99.90;;;;;;5114757;28;20089;-62
2022/04/27 11:20:39;;;;;;;78.88;48.75;;;27.10;99.90;;;;;;5114765;28;20047;-62
2022/04/27 11:23:08;;;;;;;127.55;78.43;;;27.10;99.90;;;;;;5113265;28;20116;-62
2022/04/27 11:25:37;;;;;;;18.85;12.75;;;27.10;99.90;;;;;;5097127;28;20024;-63
2022/04/27 11:28:06;;;;;;;17.20;10.27;;;27.10;99.90;;;;;;5094006;28;20384;-60
2022/04/27 11:30:34;;;;;;;18.48;11.30;;;27.10;99.90;;;;;;5094385;28;20024;-63
2022/04/27 11:33:01;;;;;;;22.92;12.05;;;27.20;99.90;;;;;;5094338;28;20074;-64
2022/04/27 11:35:38;;;;;;;21.90;12.73;;;27.30;99.90;;;;;;5094464;28;20028;-62
2022/04/27 11:38:05;;;;;;;16.55;10.32;;;27.40;99.90;;;;;;5095147;28;20028;-63
2022/04/27 11:40:39;;;;;;;37.70;26.27;;;27.20;99.90;;;;;;5091697;28;20241;-61
2022/04/27 11:43:06;;;;;;;66.43;44.35;;;27.20;99.90;;;;;;5092010;28;20036;-61
2022/04/27 11:45:33;;;;;;;31.10;18.52;;;27.20;99.90;;;;;;5090087;28;20039;-61
2022/04/27 11:48:06;;;;;;;26.83;11.30;;;27.20;99.90;;;;;;5095607;28;20066;-60
2022/04/27 11:50:35;;;;;;;60.08;40.78;;;27.10;99.90;;;;;;5091313;28;20036;-61
2022/04/27 11:53:11;;;;;;;35.38;23.02;;;26.90;99.90;;;;;;5096727;28;20024;-62
2022/04/27 11:55:38;;;;;;;66.82;41.95;;;27.00;99.90;;;;;;5094600;28;20057;-61
2022/04/27 11:58:07;;;;;;;73.00;48.85;;;27.10;99.90;;;;;;5095144;28;20024;-60
2022/04/27 12:00:35;;;;;;;67.00;45.55;;;27.10;99.90;;;;;;5094496;28;20068;-62
2022/04/27 12:03:09;;;;;;;83.90;53.15;;;27.10;99.90;;;;;;5094557;28;20032;-60
2022/04/27 12:05:38;;;;;;;124.38;80.32;;;27.10;99.90;;;;;;5095997;28;20024;-60
2022/04/27 12:08:09;;;;;;;76.00;47.25;;;27.10;99.90;;;;;;5095670;28;20024;-62
2022/04/27 12:10:41;;;;;;;39.53;25.33;;;27.00;99.90;;;;;;5096413;28;20413;-64
2022/04/27 12:13:09;;;;;;;23.52;15.00;;;26.90;99.90;;;;;;5093860;28;20035;-61
2022/04/27 12:15:39;;;;;;;21.42;13.02;;;26.90;99.90;;;;;;5109703;22;20490;-62
2022/04/27 12:18:06;;;;;;;25.80;13.80;;;26.90;99.90;;;;;;5109111;28;20039;-60
2022/04/27 12:20:37;;;;;;;28.70;17.35;;;26.90;99.90;;;;;;5105751;28;20023;-65
2022/04/27 12:23:35;;;;;;;22.92;13.93;;;26.90;99.90;;;;;;5111467;28;20028;-62
2022/04/27 12:26:02;;;;;;;27.48;15.30;;;26.90;99.90;;;;;;5105943;28;20028;-63
2022/04/27 12:28:35;;;;;;;29.00;16.02;;;26.90;99.90;;;;;;5109329;28;20092;-62
2022/04/27 12:31:06;;;;;;;31.67;16.02;;;27.10;99.90;;;;;;5105169;28;20103;-62
2022/04/27 12:33:38;;;;;;;28.17;15.90;;;27.20;99.90;;;;;;5108662;28;20020;-63
2022/04/27 12:38:56;;;;;;;22.77;13.55;;;27.30;99.90;;;;;;5107214;28;20294;-62
2022/04/27 12:41:39;;;;;;;22.75;14.45;;;27.20;99.90;;;;;;5111096;28;20020;-63
2022/04/27 12:44:09;;;;;;;29.48;15.43;;;27.30;99.90;;;;;;5102060;28;20028;-62
2022/04/27 12:46:40;;;;;;;28.67;18.02;;;27.30;99.90;;;;;;5108589;28;20371;-63
2022/04/27 12:49:07;;;;;;;27.70;14.60;;;27.40;99.90;;;;;;5105972;28;20019;-62
2022/04/27 12:51:35;;;;;;;23.05;14.23;;;27.30;99.90;;;;;;5086895;28;20385;-63
2022/04/27 12:54:03;;;;;;;23.83;15.30;;;27.30;99.90;;;;;;5101829;28;20369;-62
2022/04/27 12:56:36;;;;;;;82.90;52.00;;;27.40;99.90;;;;;;5106161;28;20058;-64
2022/04/27 12:59:06;;;;;;;41.70;22.13;;;27.40;99.90;;;;;;5102349;28;20024;-63
2022/04/27 13:01:33;;;;;;;54.08;25.40;;;27.30;99.90;;;;;;5103117;28;20020;-64